Historyczne dane pomiarowe

Dodano dane terminowe – wersja testowa.

Dane z okresu 1951-2019

Wersja bazy: 1.34 [2019-03-16, lista zmian], aktualizacja planowana na 2019-04-15

Dane meteo z obszaru Polski uzyskane na podstawie danych udostępnionych przez Instytut Meteorologii i Gospodarki Wodnej – Państwowy Instytut Badawczy.

 

Wybierz Datę:    

       

TemperaturaWilgotnośćWiatrCiśnienieOpadyŚniegCzas trwania zjawisk
 Stacja t tx tn tng RH VA  wxwx mslp ppp RRR   cm mm wxwxwxwxwxwxwx
1987-08-14 15.0 18.4 11.0- 65.8- 4.3 3.3---- 16.7------------
1987-08-13 14.7 17.2 12.0- 72.5- 4.7 2.0---- 0.0------------
1987-08-12 13.0 14.0 12.2- 76.5- 7.0 13.0---- 1.7------------
1987-08-11 13.3 14.4 12.5- 74.0- 6.3 8.3---- 0.0------------
1987-08-10 14.3 17.8 11.9- 87.8- 8.0 2.3---- 0.0------------
1987-08-09 14.9 18.0 12.3- 76.0- 5.3 6.0---- 2.9------------
1987-08-08 14.0 19.4 9.4- 69.3- 1.3 4.3---- 0.0------------
1987-08-07 13.2 16.2 11.2- 74.0- 5.0 3.3---- 0.0------------
1987-08-06 12.5 14.6 11.3- 79.3- 7.0 2.7---- 4.8------------
1987-08-05 12.5 15.3 10.2- 76.0- 6.0 6.0---- 1.2------------
1987-08-04 12.3 15.0 10.3- 76.0- 5.7 3.0---- 1.5------------
1987-08-03 12.7 15.1 11.1- 74.5- 8.0 2.7---- 13.8------------
1987-08-02 12.7 17.1 11.7- 71.5- 7.3 5.0---- 6.2------------
1987-08-01 15.0 18.1 12.8- 81.0- 8.0 6.7---- 5.4------------
1987-07-31 15.3 17.2 14.7- 70.3- 8.0 4.0---- 0.0------------
1987-07-30 16.3 20.1 13.2- 68.0- 1.0 1.3---- 0.0------------
1987-07-29 14.4 16.0 12.6- 70.5- 5.7 11.0---- 0.0------------
1987-07-28 14.6 18.5 12.0- 72.5- 4.7 6.0---- 0.0------------
1987-07-27 12.0 14.5 10.1- 70.8- 5.3 11.0---- 0.0------------
1987-07-26 13.6 16.2 10.3- 64.3- 4.7 7.7---- 0.0------------
1987-07-25 15.8 18.0 14.8- 74.3- 7.7 3.0---- 0.2------------
1987-07-24 18.6 22.3 15.3- 76.8- 2.0 5.0---- 0.0------------
1987-07-23 17.9 20.8 15.7- 83.5- 5.3 1.7---- 0.0------------
1987-07-22 17.8 21.5 14.1- 82.0- 2.3 2.7---- 0.0------------
1987-07-21 16.5 20.3 14.2- 81.0- 4.0 1.3---- 4.2------------
1987-07-20 17.1 17.6 16.3- 80.0- 8.0 2.0---- 11.2------------
1987-07-19 17.1 21.8 14.3- 75.5- 8.0 2.7---- 10.6------------
1987-07-18 19.4 24.5 15.1- 65.0- 3.7 2.0---- 0.0------------
1987-07-17 19.8 24.4 14.3- 71.0- 3.0 1.3---- 0.0------------
1987-07-16 17.5 22.5 10.1- 71.8- 2.0 2.7---- 0.0------------
1987-07-15 15.7 20.3 10.3- 74.3- 2.3 1.0---- 0.0------------
1987-07-14 15.1 17.2 13.3- 70.5- 7.3 11.3---- 0.0------------
1987-07-13 15.0 17.5 12.9- 78.0- 5.7 8.3---- 2.4------------
1987-07-12 15.9 19.3 13.1- 81.8- 3.7 5.0---- 0.0------------
1987-07-11 13.6 16.5 12.1- 76.0- 7.7 3.7---- 7.8------------
1987-07-10 14.5 17.8 12.3- 70.0- 6.7 11.0---- 0.3------------
1987-07-09 18.2 21.1 17.0- 72.3- 5.7 7.7---- 4.2------------
1987-07-08 21.3 28.0 17.2- 66.0- 2.0 4.7---- 8.4------------
1987-07-07 21.2 26.6 13.0- 45.5- 0.3 2.7---- 0.0------------
1987-07-06 17.3 22.8 11.4- 58.8- 0.3 1.7---- 0.0------------
1987-07-05 16.4 19.0 13.6- 75.8- 3.0 5.0---- 0.0------------
1987-07-04 15.4 19.8 11.2- 71.5- 1.0 1.3---- 0.0------------
1987-07-03 17.0 20.1 12.4- 61.5- 0.3 2.0---- 0.0------------
1987-07-02 17.3 19.4 16.3- 70.5- 2.7 4.3---- 0.5------------
1987-07-01 21.4 26.1 17.5- 76.5- 4.3 6.0---- 1.8------------
1987-06-30 21.1 27.5 16.3- 75.5- 4.0 1.3---- 0.0------------
1987-06-29 16.0 20.4 10.2- 75.8- 8.0 5.3---- 3.1------------
1987-06-28 13.8 16.2 11.2- 70.5- 4.0 5.0---- 0.0------------
1987-06-27 15.8 18.7 13.9- 66.3- 3.3 2.3---- 0.0------------
1987-06-26 16.0 20.2 11.1- 54.8- 2.7 3.3---- 0.0------------
1987-06-25 13.8 17.1 11.5- 71.3- 6.0 4.0---- 0.0------------
1987-06-24 14.7 18.0 13.0- 79.8- 6.7 3.7---- 0.7------------
1987-06-23 13.3 16.8 10.4- 79.5- 5.3 1.7---- 0.0------------
1987-06-22 14.5 21.5 11.1- 79.0- 6.3 2.7---- 0.0------------
1987-06-21 18.8 24.3 13.4- 53.5- 2.0 3.3---- 0.0------------
1987-06-20 15.9 21.1 9.8- 58.3- 1.0 4.0---- 0.0------------
1987-06-19 12.5 15.4 9.5- 66.8- 4.3 5.0---- 0.0------------
1987-06-18 13.2 17.5 8.0- 61.5- 3.7 5.0---- 0.0------------
1987-06-17 12.7 14.6 11.3- 62.3- 5.0 12.0---- 0.0------------
1987-06-16 13.2 18.2 10.4- 86.0- 8.0 11.0---- 6.3------------
378.6 ms

 

Źródłem pochodzenia danych jest Instytut Meteorologii i Gospodarki Wodnej – Państwowy Instytut Badawczy. Dane Instytutu Meteorologii i Gospodarki Wodnej – Państwowego Instytutu Badawczego zostały przetworzone.

Dane źródłowe można odnaleźć na stronie https://dane.imgw.pl